Time;durP1;ratioP1;P1;durP2;ratioP2;P2;SDS_P1;SDS_P2;PMS_P1;PMS_P2;Temp;Humidity;BMP_temperature;BMP_pressure;BME280_temperature;BME280_humidity;BME280_pressure;Samples;Min_cycle;Max_cycle;Signal;HPM_P1;HPM_P2
2022/12/02 00:01:48;;;;;;;75.67;50.90;;;;;;;4.16;100.00;102473.41;4953772;28;20522;-90
2022/12/02 00:04:22;;;;;;;72.83;50.60;;;;;;;4.16;100.00;102465.38;4953284;28;20038;-87
2022/12/02 00:06:48;;;;;;;70.25;50.05;;;;;;;4.13;100.00;102464.75;4960095;28;20067;-88
2022/12/02 00:09:22;;;;;;;73.03;50.17;;;;;;;4.15;100.00;102469.00;4942978;28;20034;-88
2022/12/02 00:11:48;;;;;;;72.82;50.42;;;;;;;4.15;100.00;102460.97;4954181;28;20070;-89
2022/12/02 00:14:24;;;;;;;71.00;50.00;;;;;;;4.11;100.00;102464.03;4953289;28;20468;-90
2022/12/02 00:16:51;;;;;;;70.50;50.33;;;;;;;4.07;100.00;102455.41;4952728;28;20042;-88
2022/12/02 00:19:16;;;;;;;69.67;49.30;;;;;;;4.07;100.00;102460.75;4954109;28;20043;-87
2022/12/02 00:21:42;;;;;;;69.13;49.80;;;;;;;4.03;100.00;102454.78;4953402;28;20049;-90
2022/12/02 00:24:07;;;;;;;74.07;50.87;;;;;;;4.06;100.00;102456.38;4953991;28;20043;-87
2022/12/02 00:26:32;;;;;;;74.77;50.93;;;;;;;4.05;100.00;102451.97;4953280;28;20471;-86
2022/12/02 00:28:58;;;;;;;74.27;50.50;;;;;;;4.06;100.00;102451.84;4953180;28;20034;-86
2022/12/02 00:31:23;;;;;;;76.87;50.10;;;;;;;3.96;100.00;102434.84;4953923;28;20277;-85
2022/12/02 00:33:49;;;;;;;75.90;49.23;;;;;;;4.04;100.00;102448.47;4941674;28;20075;-86
2022/12/02 00:36:14;;;;;;;77.90;51.10;;;;;;;3.95;100.00;102430.44;4953109;28;20530;-86
2022/12/02 00:38:39;;;;;;;79.93;50.43;;;;;;;3.98;100.00;102432.03;4952886;28;20050;-86
2022/12/02 00:41:05;;;;;;;77.73;50.43;;;;;;;3.96;100.00;102431.31;4936146;28;20062;-87
2022/12/02 00:46:33;;;;;;;75.65;49.65;;;;;;;3.81;100.00;102439.66;4940439;28;20681;-85
2022/12/02 00:49:03;;;;;;;76.10;50.60;;;;;;;3.79;100.00;102433.56;4953008;28;20038;-87
2022/12/02 00:51:29;;;;;;;73.40;48.17;;;;;;;3.80;100.00;102440.63;4953233;28;20066;-87
2022/12/02 00:53:54;;;;;;;69.73;47.00;;;;;;;3.77;100.00;102426.63;4952939;28;20230;-86
2022/12/02 00:56:19;;;;;;;74.73;48.73;;;;;;;3.79;100.00;102438.09;4949157;28;20039;-87
2022/12/02 00:58:45;;;;;;;73.23;48.53;;;;;;;3.74;100.00;102434.94;4953226;28;20166;-87
2022/12/02 01:01:10;;;;;;;72.40;48.20;;;;;;;3.74;100.00;102430.44;4941244;28;20495;-88
2022/12/02 01:03:36;;;;;;;71.47;47.03;;;;;;;3.68;100.00;102421.06;4952365;28;20027;-87
2022/12/02 01:06:02;;;;;;;68.70;46.03;;;;;;;3.71;100.00;102430.66;4952557;28;20043;-85
2022/12/02 01:08:27;;;;;;;71.50;46.33;;;;;;;3.54;100.00;102424.88;4952860;28;20788;-87
2022/12/02 01:10:54;;;;;;;70.50;46.77;;;;;;;3.61;100.00;102430.59;4952508;28;20099;-86
2022/12/02 01:13:19;;;;;;;65.67;45.07;;;;;;;3.49;100.00;102402.13;4939541;28;20043;-90
2022/12/02 01:15:44;;;;;;;68.03;46.07;;;;;;;3.57;100.00;102425.63;4952481;28;20077;-87
2022/12/02 01:18:10;;;;;;;68.93;46.23;;;;;;;3.50;100.00;102428.78;4952397;28;20356;-89
2022/12/02 01:20:36;;;;;;;69.53;46.27;;;;;;;3.54;100.00;102422.19;4953479;28;20043;-87
2022/12/02 01:23:01;;;;;;;70.40;47.70;;;;;;;3.25;100.00;102407.66;4952701;28;20062;-86
2022/12/02 01:25:27;;;;;;;63.53;45.23;;;;;;;3.37;100.00;102428.09;4952244;28;20531;-88
2022/12/02 01:27:52;;;;;;;64.30;45.13;;;;;;;3.44;100.00;102426.63;4953469;28;20602;-88
2022/12/02 01:30:17;;;;;;;64.60;45.13;;;;;;;3.37;100.00;102428.97;4952522;28;20070;-88
2022/12/02 01:32:43;;;;;;;66.23;45.10;;;;;;;3.40;100.00;102419.81;4952656;28;20066;-88
2022/12/02 01:35:08;;;;;;;68.90;45.40;;;;;;;3.33;100.00;102430.19;4952156;28;20093;-87
2022/12/02 01:37:34;;;;;;;69.47;46.83;;;;;;;3.43;100.00;102438.31;4939993;28;20129;-87
2022/12/02 01:39:59;;;;;;;68.73;46.83;;;;;;;3.40;100.00;102430.53;4941132;28;20050;-89
2022/12/02 01:42:25;;;;;;;65.77;45.07;;;;;;;3.37;100.00;102430.78;4940632;28;20055;-88
2022/12/02 01:44:50;;;;;;;66.00;45.63;;;;;;;3.40;100.00;102419.81;4951875;28;20448;-88
2022/12/02 01:47:16;;;;;;;66.77;46.40;;;;;;;3.38;100.00;102427.97;4952183;28;20063;-89
2022/12/02 01:49:41;;;;;;;67.17;46.13;;;;;;;3.31;100.00;102428.59;4951645;28;20102;-89
2022/12/02 01:52:07;;;;;;;67.40;46.90;;;;;;;3.23;100.00;102439.09;4952222;28;20039;-88
2022/12/02 01:54:34;;;;;;;66.40;46.67;;;;;;;3.04;100.00;102422.66;4941063;28;20577;-89
2022/12/02 01:57:00;;;;;;;69.37;46.80;;;;;;;3.13;100.00;102426.44;4952156;28;20054;-87
2022/12/02 01:59:25;;;;;;;69.67;47.37;;;;;;;3.14;100.00;102425.47;4951917;28;20467;-86
2022/12/02 02:01:51;;;;;;;70.57;48.53;;;;;;;3.04;100.00;102428.03;4952123;28;20116;-88
2022/12/02 02:04:17;;;;;;;69.80;47.10;;;;;;;3.06;100.00;102427.06;4932433;28;20281;-89
2022/12/02 02:06:45;;;;;;;72.93;46.97;;;;;;;3.06;100.00;102425.25;4932399;28;20062;-87
2022/12/02 02:09:11;;;;;;;69.77;47.37;;;;;;;3.06;100.00;102429.72;4951497;28;20092;-89
2022/12/02 02:11:37;;;;;;;65.93;46.10;;;;;;;3.02;100.00;102432.66;4936094;28;20051;-87
2022/12/02 02:14:05;;;;;;;64.97;44.40;;;;;;;3.00;100.00;102421.22;4952231;28;20065;-85
2022/12/02 02:16:31;;;;;;;61.30;46.07;;;;;;;2.89;100.00;102413.19;4950816;28;20126;-88
2022/12/02 02:18:56;;;;;;;60.87;43.73;;;;;;;2.95;100.00;102423.44;4939196;28;20043;-90
2022/12/02 02:21:26;;;;;;;60.77;43.03;;;;;;;2.91;100.00;102419.28;4951227;28;20035;-87
2022/12/02 02:23:52;;;;;;;59.33;43.10;;;;;;;2.91;100.00;102421.09;4931623;28;20038;-90
2022/12/02 02:26:18;;;;;;;55.00;41.70;;;;;;;2.79;100.00;102418.44;4951185;28;20039;-86
2022/12/02 02:28:43;;;;;;;56.77;41.67;;;;;;;2.65;100.00;102407.97;4950986;28;20660;-87
2022/12/02 02:31:09;;;;;;;54.80;40.93;;;;;;;2.85;100.00;102417.94;4951489;28;20039;-86
2022/12/02 02:33:35;;;;;;;55.30;40.67;;;;;;;2.67;100.00;102420.25;4952004;28;20050;-88
2022/12/02 02:36:02;;;;;;;60.03;41.90;;;;;;;2.63;100.00;102409.91;4950751;28;20101;-86
2022/12/02 02:38:29;;;;;;;57.63;41.53;;;;;;;2.68;100.00;102411.25;4950531;28;20039;-86
2022/12/02 02:40:56;;;;;;;58.77;41.33;;;;;;;2.75;100.00;102405.41;4927905;28;20036;-85
2022/12/02 02:43:25;;;;;;;58.13;41.73;;;;;;;2.69;100.00;102412.97;4951185;28;20149;-85
2022/12/02 02:45:52;;;;;;;56.83;42.20;;;;;;;2.48;100.00;102407.47;4950863;28;20039;-88
2022/12/02 02:48:19;;;;;;;58.50;41.87;;;;;;;2.55;100.00;102410.50;4951130;28;20451;-86
2022/12/02 02:50:46;;;;;;;59.57;42.53;;;;;;;2.56;100.00;102408.69;4951015;28;20039;-88
2022/12/02 02:53:13;;;;;;;56.90;41.47;;;;;;;2.47;100.00;102391.53;4950809;28;20035;-85
2022/12/02 02:55:38;;;;;;;55.47;40.03;;;;;;;2.61;100.00;102403.81;4934060;28;20041;-88
2022/12/02 02:58:13;;;;;;;59.80;42.27;;;;;;;2.77;100.00;102406.16;4943144;28;20042;-88
2022/12/02 03:00:41;;;;;;;;;;;;;;;2.80;100.00;102404.09;4951145;28;20039;-88
2022/12/02 03:03:07;;;;;;;60.10;42.83;;;;;;;2.53;100.00;102375.84;4951341;28;19926;-90
2022/12/02 03:05:33;;;;;;;58.00;41.17;;;;;;;2.75;100.00;102394.69;4950668;28;20078;-88
2022/12/02 03:07:59;;;;;;;56.97;40.50;;;;;;;2.75;100.00;102379.50;4950787;28;20051;-89
2022/12/02 03:10:24;;;;;;;58.23;41.70;;;;;;;2.71;100.00;102378.03;4939926;28;20172;-88
2022/12/02 03:12:52;;;;;;;58.03;41.67;;;;;;;2.68;100.00;102378.31;4951066;28;20077;-87
2022/12/02 03:15:18;;;;;;;59.10;41.80;;;;;;;2.71;100.00;102380.72;4950553;28;20034;-90
2022/12/02 03:17:44;;;;;;;57.10;40.40;;;;;;;2.69;100.00;102393.34;4951426;28;20035;-89
2022/12/02 03:20:10;;;;;;;59.67;41.80;;;;;;;2.65;100.00;102395.44;4955393;28;20042;-87
2022/12/02 03:22:35;;;;;;;57.27;41.33;;;;;;;2.61;100.00;102380.59;4954358;28;20047;-87
2022/12/02 03:25:02;;;;;;;57.87;41.07;;;;;;;2.47;100.00;102378.16;4954199;28;20066;-88
2022/12/02 03:27:28;;;;;;;59.23;40.90;;;;;;;2.49;100.00;102385.09;4954275;28;20032;-88
2022/12/02 03:29:53;;;;;;;59.27;41.07;;;;;;;2.56;100.00;102387.28;4954806;28;20089;-88
2022/12/02 03:32:19;;;;;;;61.17;42.33;;;;;;;2.46;100.00;102380.00;4955050;28;20035;-89
2022/12/02 03:34:45;;;;;;;58.17;41.03;;;;;;;2.47;100.00;102362.09;4953632;28;20202;-87
2022/12/02 03:37:10;;;;;;;59.37;41.60;;;;;;;2.39;100.00;102369.88;4953970;28;20480;-87
2022/12/02 03:39:36;;;;;;;58.67;41.13;;;;;;;2.48;100.00;102372.69;4954078;28;20515;-85
2022/12/02 03:42:02;;;;;;;58.07;41.33;;;;;;;2.49;100.00;102369.03;4954568;28;20055;-87
2022/12/02 03:44:29;;;;;;;59.33;41.77;;;;;;;2.51;100.00;102361.72;4954129;28;20142;-88
2022/12/02 03:46:54;;;;;;;57.33;40.57;;;;;;;2.51;100.00;102353.69;4954462;28;20035;-88
2022/12/02 03:49:20;;;;;;;54.97;38.93;;;;;;;2.46;100.00;102345.22;4954752;28;20464;-88
2022/12/02 03:51:47;;;;;;;54.53;38.00;;;;;;;2.56;100.00;102358.72;4953690;28;20039;-88
2022/12/02 03:54:13;;;;;;;54.57;37.27;;;;;;;2.52;100.00;102352.72;4941092;28;20467;-85
2022/12/02 03:56:44;;;;;;;56.60;38.13;;;;;;;2.51;100.00;102350.19;4942405;28;20129;-86
2022/12/02 03:59:16;;;;;;;57.30;39.63;;;;;;;2.49;100.00;102362.84;4936191;28;20039;-86
2022/12/02 04:01:42;;;;;;;58.87;40.50;;;;;;;2.48;100.00;102361.97;4936034;28;20562;-87
2022/12/02 04:04:07;;;;;;;56.53;38.93;;;;;;;2.53;100.00;102350.94;4953450;28;20042;-88
2022/12/02 04:06:32;;;;;;;58.03;38.17;;;;;;;2.44;100.00;102348.97;4955507;28;20130;-87
2022/12/02 04:08:58;;;;;;;56.70;39.23;;;;;;;2.48;100.00;102355.78;4954122;28;20162;-87
2022/12/02 04:11:23;;;;;;;59.67;40.03;;;;;;;2.47;100.00;102344.22;4953701;28;20151;-88
2022/12/02 04:13:48;;;;;;;59.53;39.17;;;;;;;2.42;100.00;102341.09;4954194;28;20491;-87
2022/12/02 04:16:14;;;;;;;62.83;41.33;;;;;;;2.48;100.00;102343.25;4953390;28;20444;-86
2022/12/02 04:18:39;;;;;;;62.07;40.27;;;;;;;2.47;100.00;102330.84;4953423;28;20455;-91
2022/12/02 04:21:04;;;;;;;58.93;39.40;;;;;;;2.48;100.00;102337.06;4954460;28;20089;-88
2022/12/02 04:23:30;;;;;;;57.20;38.87;;;;;;;2.41;100.00;102347.41;4953109;28;20038;-85
2022/12/02 04:25:55;;;;;;;54.73;37.73;;;;;;;2.49;100.00;102350.31;4922997;28;20499;-85
2022/12/02 04:28:21;;;;;;;54.77;38.07;;;;;;;2.33;100.00;102344.47;4952894;28;20045;-87
2022/12/02 04:30:46;;;;;;;58.67;39.10;;;;;;;2.38;100.00;102349.44;4940549;28;20058;-87
2022/12/02 04:33:11;;;;;;;59.27;39.40;;;;;;;2.40;100.00;102348.34;4953494;28;20093;-87
2022/12/02 04:35:37;;;;;;;55.93;38.27;;;;;;;2.41;100.00;102355.41;4952323;28;20046;-85
2022/12/02 04:38:02;;;;;;;54.43;37.27;;;;;;;2.38;100.00;102338.75;4952767;28;20074;-86
2022/12/02 04:40:27;;;;;;;56.73;38.27;;;;;;;2.33;100.00;102347.16;4953016;28;20047;-87
2022/12/02 04:42:53;;;;;;;56.97;39.10;;;;;;;2.31;100.00;102327.69;4953004;28;20099;-88
2022/12/02 04:45:18;;;;;;;54.10;37.00;;;;;;;2.38;100.00;102333.41;4953144;28;20047;-87
2022/12/02 04:47:43;;;;;;;52.47;36.00;;;;;;;2.37;100.00;102332.56;4953353;28;20174;-86
2022/12/02 04:50:09;;;;;;;50.80;36.00;;;;;;;2.30;100.00;102332.19;4953466;28;21440;-86
2022/12/02 04:52:35;;;;;;;44.70;32.87;;;;;;;2.28;100.00;102322.56;4952904;28;20039;-90
2022/12/02 04:55:00;;;;;;;43.40;31.80;;;;;;;2.28;100.00;102322.56;4952890;28;20035;-86
2022/12/02 04:57:26;;;;;;;45.53;32.33;;;;;;;2.34;100.00;102316.75;4952669;28;20043;-87
2022/12/02 04:59:51;;;;;;;45.10;31.33;;;;;;;2.31;100.00;102316.97;4950123;28;20039;-87
2022/12/02 05:02:17;;;;;;;44.80;32.67;;;;;;;2.23;100.00;102319.41;4953980;28;20423;-86
2022/12/02 05:04:42;;;;;;;44.67;30.83;;;;;;;2.23;100.00;102314.06;4952735;28;20061;-87
2022/12/02 05:07:08;;;;;;;45.30;31.87;;;;;;;2.28;100.00;102304.69;4952707;28;20061;-90
2022/12/02 05:09:33;;;;;;;39.57;29.73;;;;;;;2.32;100.00;102305.31;4953174;28;20047;-89
2022/12/02 05:11:58;;;;;;;39.53;27.77;;;;;;;2.26;100.00;102301.31;4952702;28;20062;-88
2022/12/02 05:14:24;;;;;;;39.17;28.37;;;;;;;2.24;100.00;102305.06;4933747;28;20681;-88
2022/12/02 05:16:50;;;;;;;38.70;27.93;;;;;;;2.19;100.00;102292.91;4952999;28;20134;-86
2022/12/02 05:19:15;;;;;;;40.77;29.07;;;;;;;2.17;100.00;102278.81;4953713;28;20047;-86
2022/12/02 05:21:40;;;;;;;39.90;28.43;;;;;;;2.28;100.00;102301.19;4953092;28;20038;-86
2022/12/02 05:24:06;;;;;;;42.73;29.53;;;;;;;2.34;100.00;102304.22;4952710;28;21374;-89
2022/12/02 05:26:31;;;;;;;41.93;27.57;;;;;;;2.43;100.00;102310.66;4952714;28;20063;-87
2022/12/02 05:28:56;;;;;;;39.50;28.33;;;;;;;2.28;100.00;102311.88;4952278;28;20047;-89
2022/12/02 05:31:22;;;;;;;43.03;29.30;;;;;;;2.24;100.00;102302.41;4951895;28;20118;-87
2022/12/02 05:33:47;;;;;;;39.03;27.03;;;;;;;2.26;100.00;102295.09;4951235;28;20035;-87
2022/12/02 05:36:13;;;;;;;40.30;28.13;;;;;;;2.28;100.00;102295.84;4948267;28;20070;-85
2022/12/02 05:38:39;;;;;;;39.43;26.63;;;;;;;2.27;100.00;102302.16;4952511;28;20154;-87
2022/12/02 05:41:05;;;;;;;39.60;26.83;;;;;;;2.30;100.00;102299.22;4951782;28;20094;-86
2022/12/02 05:43:37;;;;;;;40.60;28.47;;;;;;;2.32;100.00;102302.63;4952250;28;20145;-89
2022/12/02 05:46:11;;;;;;;42.67;28.23;;;;;;;2.28;100.00;102291.31;4951937;28;20046;-88
2022/12/02 05:48:37;;;;;;;41.90;27.27;;;;;;;2.33;100.00;102304.34;4953061;28;20034;-86
2022/12/02 05:51:08;;;;;;;40.43;27.33;;;;;;;2.29;100.00;102301.06;4952212;28;20392;-88
2022/12/02 05:53:34;;;;;;;39.77;27.37;;;;;;;2.22;100.00;102297.19;4951850;28;20043;-86
2022/12/02 05:56:00;;;;;;;40.77;26.83;;;;;;;2.19;100.00;102292.06;4952448;28;20463;-88
2022/12/02 05:58:26;;;;;;;40.33;27.83;;;;;;;2.23;100.00;102304.22;4942793;28;20039;-87
2022/12/02 06:00:57;;;;;;;40.80;26.57;;;;;;;2.25;100.00;102304.09;4951409;28;20566;-87
2022/12/02 06:03:23;;;;;;;40.53;26.97;;;;;;;2.27;100.00;102300.34;4951648;28;20031;-87
2022/12/02 06:05:49;;;;;;;40.63;27.37;;;;;;;2.28;100.00;102310.03;4951658;28;20522;-85
2022/12/02 06:08:19;;;;;;;39.83;27.27;;;;;;;2.28;100.00;102303.84;4922649;28;20039;-88
2022/12/02 06:10:55;;;;;;;40.67;28.73;;;;;;;2.15;100.00;102287.94;4952135;28;20039;-88
2022/12/02 06:13:23;;;;;;;40.10;27.10;;;;;;;2.20;100.00;102288.41;4951648;28;20038;-88
2022/12/02 06:15:50;;;;;;;39.10;27.17;;;;;;;2.14;100.00;102275.53;4947254;28;20232;-85
2022/12/02 06:18:19;;;;;;;40.30;27.70;;;;;;;2.10;100.00;102269.56;4951854;28;20434;-87
2022/12/02 06:20:50;;;;;;;39.30;26.50;;;;;;;2.19;100.00;102286.72;4952091;28;20175;-88
2022/12/02 06:23:18;;;;;;;40.43;27.43;;;;;;;2.27;100.00;102289.66;4942604;28;20416;-87
2022/12/02 06:25:45;;;;;;;38.27;26.43;;;;;;;2.39;100.00;102303.00;4941999;28;20033;-90
2022/12/02 06:28:18;;;;;;;37.73;27.00;;;;;;;2.12;100.00;102275.66;4933627;28;20055;-89
2022/12/02 06:30:44;;;;;;;39.40;27.30;;;;;;;2.16;100.00;102274.44;4938794;28;20058;-88
2022/12/02 06:33:25;;;;;;;39.30;27.23;;;;;;;2.13;100.00;102272.00;4950987;28;20097;-88
2022/12/02 06:35:52;;;;;;;41.53;27.43;;;;;;;2.13;100.00;102277.34;4952547;28;20035;-89
2022/12/02 06:38:57;;;;;;;41.90;28.07;;;;;;;2.09;100.00;102285.75;4951735;28;20069;-88
2022/12/02 06:41:23;;;;;;;42.38;27.65;;;;;;;2.18;100.00;102304.56;4933271;28;20140;-90
2022/12/02 06:46:34;;;;;;;41.50;27.70;;;;;;;1.97;100.00;102276.84;4951975;28;20054;-88
2022/12/02 06:49:12;;;;;;;40.43;27.77;;;;;;;2.03;100.00;102271.88;4934578;28;20066;-87
2022/12/02 06:51:37;;;;;;;41.10;27.47;;;;;;;2.10;100.00;102274.91;4951695;28;21488;-87
2022/12/02 06:54:12;;;;;;;39.93;27.90;;;;;;;1.85;100.00;102268.00;4950631;28;20043;-87
2022/12/02 06:56:38;;;;;;;38.10;25.03;;;;;;;1.93;100.00;102265.56;4951615;28;20058;-88
2022/12/02 06:59:05;;;;;;;35.73;24.03;;;;;;;2.06;100.00;102289.50;4948874;28;20503;-91
2022/12/02 07:01:42;;;;;;;35.70;23.67;;;;;;;2.02;100.00;102266.66;4934320;28;20031;-88
2022/12/02 07:04:07;;;;;;;34.80;22.73;;;;;;;2.00;100.00;102265.94;4941692;28;20090;-89
2022/12/02 07:06:38;;;;;;;33.07;21.80;;;;;;;2.01;100.00;102280.97;4950581;28;20039;-89
2022/12/02 07:09:37;;;;;;;34.47;22.07;;;;;;;2.10;100.00;102293.63;4950191;28;20034;-88
2022/12/02 07:12:03;;;;;;;36.33;23.40;;;;;;;2.06;100.00;102284.16;4950271;28;20498;-87
2022/12/02 07:14:44;;;;;;;33.87;22.17;;;;;;;2.19;100.00;102300.09;4949851;28;20364;-89
2022/12/02 07:17:22;;;;;;;32.63;22.57;;;;;;;2.22;100.00;102307.00;4950248;28;20094;-88
2022/12/02 07:20:01;;;;;;;34.57;23.27;;;;;;;2.16;100.00;102290.50;4950106;28;20043;-88
2022/12/02 07:22:46;;;;;;;34.47;22.50;;;;;;;2.27;100.00;102311.03;4936316;28;20134;-89
2022/12/02 07:25:15;;;;;;;33.83;21.98;;;;;;;2.22;100.00;102304.31;4950059;28;20440;-87
2022/12/02 07:27:44;;;;;;;35.40;22.40;;;;;;;2.16;100.00;102303.00;4950706;28;20584;-86
2022/12/02 07:30:24;;;;;;;34.03;22.67;;;;;;;2.34;100.00;102306.06;4954447;28;20035;-88
2022/12/02 07:32:49;;;;;;;35.60;23.77;;;;;;;2.26;100.00;102306.66;4951868;28;20106;-88
2022/12/02 07:35:15;;;;;;;36.57;24.57;;;;;;;2.34;100.00;102303.38;4954439;28;20067;-86
2022/12/02 07:37:40;;;;;;;37.07;24.40;;;;;;;2.25;100.00;102301.44;4951060;28;20740;-87
2022/12/02 07:40:06;;;;;;;36.23;24.07;;;;;;;2.28;100.00;102306.53;4950837;28;20090;-87
2022/12/02 07:42:31;;;;;;;37.27;25.00;;;;;;;2.31;100.00;102300.94;4950283;28;20523;-89
2022/12/02 07:44:57;;;;;;;37.63;25.57;;;;;;;2.17;100.00;102289.50;4938397;28;20584;-89
2022/12/02 07:47:22;;;;;;;39.67;26.40;;;;;;;2.06;100.00;102302.88;4953021;28;20031;-86
2022/12/02 07:49:47;;;;;;;38.10;25.83;;;;;;;2.10;100.00;102298.97;4948783;28;20768;-87
2022/12/02 07:52:13;;;;;;;39.77;26.53;;;;;;;2.02;100.00;102298.72;4934692;28;20069;-87
2022/12/02 07:54:38;;;;;;;41.97;25.83;;;;;;;2.11;100.00;102313.19;4950551;28;20365;-89
2022/12/02 07:57:03;;;;;;;40.03;26.60;;;;;;;2.09;100.00;102302.63;4950519;28;20807;-88
2022/12/02 07:59:29;;;;;;;43.87;27.53;;;;;;;2.16;100.00;102303.88;4950209;28;20166;-89
2022/12/02 08:01:54;;;;;;;43.37;27.33;;;;;;;2.12;100.00;102310.44;4937555;28;20137;-88
2022/12/02 08:04:19;;;;;;;41.20;27.40;;;;;;;2.03;100.00;102305.78;4960286;28;20036;-89
2022/12/02 08:06:45;;;;;;;42.80;29.07;;;;;;;2.09;100.00;102307.97;4956261;28;20034;-87
2022/12/02 08:09:10;;;;;;;42.53;30.77;;;;;;;1.92;100.00;102306.63;4976953;28;20039;-88
2022/12/02 08:11:36;;;;;;;43.47;29.43;;;;;;;1.98;100.00;102315.97;4941504;28;20401;-89
2022/12/02 08:14:01;;;;;;;44.67;30.33;;;;;;;2.05;100.00;102314.53;4935654;28;20050;-89
2022/12/02 08:16:27;;;;;;;43.23;30.30;;;;;;;2.01;100.00;102318.41;4959936;28;20034;-91
2022/12/02 08:18:52;;;;;;;44.07;31.00;;;;;;;1.99;100.00;102312.34;4968832;28;20049;-88
2022/12/02 08:21:18;;;;;;;43.13;30.10;;;;;;;1.97;100.00;102299.09;4971274;28;20030;-86
2022/12/02 08:23:43;;;;;;;43.77;30.63;;;;;;;2.04;100.00;102310.19;4975318;28;20023;-89
2022/12/02 08:26:09;;;;;;;44.17;31.57;;;;;;;2.03;100.00;102301.28;4949455;28;20125;-89
2022/12/02 08:28:34;;;;;;;40.73;29.90;;;;;;;1.99;100.00;102304.31;4960622;28;20034;-89
2022/12/02 08:30:59;;;;;;;42.23;29.57;;;;;;;2.06;100.00;102302.88;4971309;28;20379;-88
2022/12/02 08:33:25;;;;;;;42.00;29.17;;;;;;;2.11;100.00;102310.53;4970846;28;20059;-89
2022/12/02 08:35:50;;;;;;;41.63;27.93;;;;;;;1.99;100.00;102296.31;4963036;28;20026;-88
2022/12/02 08:38:15;;;;;;;40.50;27.27;;;;;;;1.99;100.00;102299.81;4958609;28;20041;-89
2022/12/02 08:40:41;;;;;;;40.67;27.90;;;;;;;2.03;100.00;102303.13;4958505;28;20041;-90
2022/12/02 08:43:06;;;;;;;41.43;27.67;;;;;;;1.90;100.00;102280.97;4964683;28;20159;-88
2022/12/02 08:45:31;;;;;;;37.57;25.83;;;;;;;1.93;100.00;102307.47;4952331;28;20133;-88
2022/12/02 08:47:57;;;;;;;37.47;25.17;;;;;;;2.01;100.00;102311.25;4976579;28;20027;-89
2022/12/02 08:50:22;;;;;;;36.07;25.10;;;;;;;1.86;100.00;102301.75;4969048;28;20368;-90
2022/12/02 08:52:48;;;;;;;41.30;25.63;;;;;;;1.92;100.00;102303.06;4971875;28;20038;-87
2022/12/02 08:55:13;;;;;;;38.47;26.87;;;;;;;1.92;100.00;102306.63;4976721;28;20035;-88
2022/12/02 08:57:39;;;;;;;39.93;25.60;;;;;;;1.92;100.00;102311.97;4977042;28;20043;-88
2022/12/02 09:00:06;;;;;;;41.07;27.13;;;;;;;1.84;100.00;102304.53;4975355;28;20113;-86
2022/12/02 09:02:31;;;;;;;39.77;26.17;;;;;;;1.99;100.00;102297.16;4962062;28;20042;-88
2022/12/02 09:04:57;;;;;;;40.00;25.20;;;;;;;1.92;100.00;102313.78;4939791;28;20027;-88
2022/12/02 09:07:22;;;;;;;37.47;25.53;;;;;;;1.85;100.00;102302.72;4966989;28;20118;-88
2022/12/02 09:09:48;;;;;;;38.10;25.40;;;;;;;1.79;100.00;102297.84;4949409;28;20041;-87
2022/12/02 09:12:13;;;;;;;37.23;25.03;;;;;;;1.91;100.00;102306.75;4938676;28;20471;-88
2022/12/02 09:14:38;;;;;;;36.07;24.40;;;;;;;1.84;100.00;102299.19;4957941;28;20166;-88
2022/12/02 09:17:04;;;;;;;35.70;23.40;;;;;;;1.76;100.00;102296.25;4968099;28;20089;-87
2022/12/02 09:19:29;;;;;;;34.73;23.23;;;;;;;1.90;100.00;102308.56;4953294;29;20063;-85
2022/12/02 09:21:54;;;;;;;37.23;24.07;;;;;;;1.90;100.00;102307.72;4972450;28;20077;-88
2022/12/02 09:24:20;;;;;;;38.63;25.27;;;;;;;1.81;100.00;102298.56;4951569;28;20067;-88
2022/12/02 09:26:45;;;;;;;38.30;24.23;;;;;;;1.82;100.00;102311.84;4952183;28;20779;-88
2022/12/02 09:29:10;;;;;;;35.50;23.80;;;;;;;1.84;100.00;102303.69;4951622;28;20043;-88
2022/12/02 09:31:36;;;;;;;38.53;24.43;;;;;;;1.79;100.00;102295.19;4952032;28;20138;-88
2022/12/02 09:34:01;;;;;;;40.80;24.87;;;;;;;1.83;100.00;102292.13;4940630;28;20507;-89
2022/12/02 09:36:26;;;;;;;38.90;24.50;;;;;;;1.93;100.00;102302.13;4952301;28;20419;-87
2022/12/02 09:38:52;;;;;;;40.30;26.17;;;;;;;1.77;100.00;102292.63;4940741;28;20050;-89
2022/12/02 09:41:18;;;;;;;42.77;26.67;;;;;;;1.81;100.00;102294.09;4951433;28;20089;-88
2022/12/02 09:43:43;;;;;;;43.97;26.97;;;;;;;1.64;100.00;102267.81;4957187;28;20042;-89
2022/12/02 09:46:09;;;;;;;40.53;26.13;;;;;;;1.64;100.00;102276.66;4951923;28;20494;-90
2022/12/02 09:48:35;;;;;;;44.03;27.23;;;;;;;1.74;100.00;102283.97;4949683;28;20050;-88
2022/12/02 09:51:00;;;;;;;43.33;26.10;;;;;;;1.66;100.00;102292.59;4951615;28;20081;-88
2022/12/02 09:53:36;;;;;;;44.83;27.20;;;;;;;1.72;100.00;102285.94;4933178;28;20497;-88
2022/12/02 09:56:01;;;;;;;49.63;28.20;;;;;;;1.76;100.00;102285.56;4948013;28;20066;-89
2022/12/02 09:58:27;;;;;;;48.50;28.63;;;;;;;1.79;100.00;102285.31;4951763;28;20039;-89
2022/12/02 10:00:53;;;;;;;51.33;29.47;;;;;;;1.77;100.00;102292.63;4951929;28;20077;-88
2022/12/02 10:03:22;;;;;;;52.10;30.67;;;;;;;1.76;100.00;102290.91;4951671;28;20494;-89
2022/12/02 10:05:48;;;;;;;53.97;30.80;;;;;;;1.79;100.00;102288.00;4951289;28;20035;-89
2022/12/02 10:08:20;;;;;;;53.13;30.07;;;;;;;1.95;100.00;102298.34;4938197;28;20775;-89
2022/12/02 10:10:46;;;;;;;53.97;29.97;;;;;;;1.88;100.00;102282.91;4968473;28;20027;-87
2022/12/02 10:13:14;;;;;;;52.63;32.63;;;;;;;1.80;100.00;102287.03;4941453;28;20039;-90
2022/12/02 10:15:40;;;;;;;53.00;30.33;;;;;;;1.90;100.00;102292.50;4950653;28;20474;-87
2022/12/02 10:18:11;;;;;;;60.20;31.20;;;;;;;1.86;100.00;102283.03;4950562;28;20041;-88
2022/12/02 10:20:37;;;;;;;59.47;32.47;;;;;;;1.77;100.00;102265.03;4948024;28;20499;-88
2022/12/02 10:23:19;;;;;;;58.87;33.67;;;;;;;1.86;100.00;102280.34;4950592;28;20039;-89
2022/12/02 10:25:48;;;;;;;60.33;34.13;;;;;;;1.91;100.00;102277.34;4951325;28;20242;-88
2022/12/02 10:28:21;;;;;;;61.07;33.23;;;;;;;1.95;100.00;102278.81;4950250;28;20555;-87
2022/12/02 10:31:07;;;;;;;62.33;33.43;;;;;;;1.92;100.00;102273.69;4939183;28;20326;-89
2022/12/02 10:33:35;;;;;;;55.77;31.10;;;;;;;1.91;100.00;102270.16;4950982;28;20035;-89
2022/12/02 10:36:01;;;;;;;59.37;32.83;;;;;;;2.03;100.00;102265.69;4951465;28;20046;-88
2022/12/02 10:38:35;;;;;;;60.77;32.43;;;;;;;1.96;100.00;102270.66;4935104;28;20093;-89
2022/12/02 10:41:13;;;;;;;55.22;32.08;;;;;;;2.13;100.00;102268.47;4951498;28;20042;-90
2022/12/02 10:43:40;;;;;;;57.20;31.93;;;;;;;1.98;100.00;102241.13;4926395;28;20543;-90
2022/12/02 10:46:05;;;;;;;59.63;33.47;;;;;;;2.15;100.00;102261.19;4957533;28;20936;-88
2022/12/02 10:48:31;;;;;;;57.97;31.57;;;;;;;2.18;100.00;102259.13;4963849;28;20066;-88
2022/12/02 10:50:56;;;;;;;54.73;30.53;;;;;;;2.11;100.00;102239.19;4955488;28;20442;-88
2022/12/02 10:53:26;;;;;;;58.47;33.47;;;;;;;2.13;100.00;102250.59;4953174;29;20040;-90
2022/12/02 10:55:53;;;;;;;56.07;32.10;;;;;;;2.15;100.00;102248.69;4968712;28;20110;-89
2022/12/02 10:58:46;;;;;;;57.27;32.07;;;;;;;2.19;100.00;102250.13;4972039;28;20023;-86
2022/12/02 11:01:12;;;;;;;53.37;30.43;;;;;;;2.23;100.00;102247.19;4962098;28;20134;-86
2022/12/02 11:03:38;;;;;;;57.60;32.60;;;;;;;2.19;100.00;102250.13;4967820;28;20058;-87
2022/12/02 11:06:11;;;;;;;55.77;31.20;;;;;;;2.33;100.00;102253.53;4954611;28;20552;-87
2022/12/02 11:08:38;;;;;;;54.07;30.43;;;;;;;2.34;100.00;102250.72;4968215;28;20023;-89
2022/12/02 11:11:34;;;;;;;54.10;31.07;;;;;;;2.35;100.00;102248.91;4974162;28;20034;-89
2022/12/02 11:14:03;;;;;;;51.70;31.37;;;;;;;2.30;100.00;102253.75;4967468;28;20463;-88
2022/12/02 11:16:28;;;;;;;52.63;30.50;;;;;;;2.41;100.00;102252.88;4963842;28;20035;-86